createdAt,value
2019-01-04T00:00:18.657Z,1029.24
2019-01-04T00:01:18.628Z,1029.24
2019-01-04T00:02:18.607Z,1029.23
2019-01-04T00:03:18.578Z,1029.26
2019-01-04T00:04:18.559Z,1029.21
2019-01-04T00:05:18.539Z,1029.23
2019-01-04T00:06:18.552Z,1029.21
2019-01-04T00:07:18.489Z,1029.21
2019-01-04T00:08:18.466Z,1029.20
2019-01-04T00:09:18.435Z,1029.20
2019-01-04T00:10:18.420Z,1029.19
2019-01-04T00:11:18.388Z,1029.18
2019-01-04T00:12:18.365Z,1029.14
2019-01-04T00:13:18.341Z,1029.12
2019-01-04T00:14:18.321Z,1029.11
2019-01-04T00:15:18.298Z,1029.11
2019-01-04T00:16:18.272Z,1029.13
2019-01-04T00:17:18.247Z,1029.09
2019-01-04T00:18:18.223Z,1029.09
2019-01-04T00:19:18.198Z,1029.12
2019-01-04T00:20:18.177Z,1029.08
2019-01-04T00:21:18.152Z,1029.07
2019-01-04T00:22:18.127Z,1029.09
2019-01-04T00:23:18.103Z,1029.11
2019-01-04T00:24:18.077Z,1029.09
2019-01-04T00:25:18.058Z,1029.14
2019-01-04T00:26:18.039Z,1029.16
2019-01-04T00:27:18.007Z,1029.14
2019-01-04T00:28:17.985Z,1029.18
2019-01-04T00:29:17.960Z,1029.19
2019-01-04T00:30:17.936Z,1029.19
2019-01-04T00:31:17.912Z,1029.18
2019-01-04T00:32:17.887Z,1029.17
2019-01-04T00:33:17.868Z,1029.22
2019-01-04T00:34:17.840Z,1029.15
2019-01-04T00:35:17.818Z,1029.19
2019-01-04T00:36:17.788Z,1029.24
2019-01-04T00:37:17.765Z,1029.17
2019-01-04T00:38:17.747Z,1029.20
2019-01-04T00:39:17.718Z,1029.24
2019-01-04T00:40:17.703Z,1029.18
2019-01-04T00:41:17.672Z,1029.13
2019-01-04T00:42:17.649Z,1029.13
2019-01-04T00:43:17.627Z,1029.12
2019-01-04T00:44:17.600Z,1029.09
2019-01-04T00:45:17.579Z,1029.10
2019-01-04T00:46:17.553Z,1029.08
2019-01-04T00:47:17.529Z,1029.09
2019-01-04T00:48:17.505Z,1029.10
2019-01-04T00:49:17.480Z,1029.05
2019-01-04T00:50:17.461Z,1029.04
2019-01-04T00:51:17.433Z,1029.03
2019-01-04T00:52:17.414Z,1028.99
2019-01-04T00:53:17.385Z,1029.00
2019-01-04T00:54:17.359Z,1028.98
2019-01-04T00:55:17.335Z,1028.99
2019-01-04T00:56:17.322Z,1028.97
2019-01-04T00:57:17.288Z,1028.97
2019-01-04T00:58:17.265Z,1028.98
2019-01-04T00:59:17.251Z,1029.01
2019-01-04T01:00:17.225Z,1029.04
2019-01-04T01:01:17.196Z,1029.01
2019-01-04T01:02:17.173Z,1029.03
2019-01-04T01:03:17.147Z,1029.00
2019-01-04T01:04:17.121Z,1029.04
2019-01-04T01:05:17.097Z,1029.02
2019-01-04T01:06:17.073Z,1029.08
2019-01-04T01:07:17.052Z,1029.05
2019-01-04T01:08:17.027Z,1029.07
2019-01-04T01:09:17.003Z,1029.06
2019-01-04T01:10:16.977Z,1029.02
2019-01-04T01:11:16.957Z,1029.05
2019-01-04T01:12:16.936Z,1029.02
2019-01-04T01:13:16.907Z,1029.01
2019-01-04T01:14:16.883Z,1028.95
2019-01-04T01:15:16.860Z,1028.94
2019-01-04T01:16:16.841Z,1028.97
2019-01-04T01:17:16.814Z,1028.96
2019-01-04T01:18:16.793Z,1028.95
2019-01-04T01:19:16.765Z,1028.96
2019-01-04T01:20:16.745Z,1028.91
2019-01-04T01:21:16.719Z,1028.92
2019-01-04T01:22:16.697Z,1028.89
2019-01-04T01:23:16.667Z,1028.88
2019-01-04T01:24:16.642Z,1028.90
2019-01-04T01:25:16.622Z,1028.91
2019-01-04T01:26:16.595Z,1028.88
2019-01-04T01:27:16.572Z,1028.95
2019-01-04T01:28:16.548Z,1028.94
2019-01-04T01:29:16.528Z,1028.92
2019-01-04T01:30:16.503Z,1028.97
2019-01-04T01:31:16.480Z,1028.97
2019-01-04T01:32:16.460Z,1028.99
2019-01-04T01:33:16.429Z,1028.93
2019-01-04T01:34:16.412Z,1028.95
2019-01-04T01:35:16.388Z,1028.95
2019-01-04T01:36:16.361Z,1028.96
2019-01-04T01:37:16.341Z,1028.95
2019-01-04T01:38:16.320Z,1028.99
2019-01-04T01:39:16.288Z,1029.01
2019-01-04T01:40:16.269Z,1028.94
2019-01-04T01:41:16.240Z,1028.94
2019-01-04T01:42:16.216Z,1028.89
2019-01-04T01:43:16.191Z,1028.81
2019-01-04T01:44:16.172Z,1028.75
2019-01-04T01:45:16.143Z,1028.76
2019-01-04T01:46:16.122Z,1028.70
2019-01-04T01:47:16.098Z,1028.71
2019-01-04T01:48:16.074Z,1028.75
2019-01-04T01:49:16.052Z,1028.71
2019-01-04T01:50:16.027Z,1028.77
2019-01-04T01:51:16.002Z,1028.76
2019-01-04T01:52:15.981Z,1028.81
2019-01-04T01:53:15.956Z,1028.77
2019-01-04T01:54:15.929Z,1028.77
2019-01-04T01:55:15.907Z,1028.77
2019-01-04T01:56:15.886Z,1028.77
2019-01-04T01:57:15.860Z,1028.75
2019-01-04T01:58:15.842Z,1028.76
2019-01-04T01:59:15.814Z,1028.74
2019-01-04T02:00:15.792Z,1028.76
2019-01-04T02:01:15.767Z,1028.78
2019-01-04T02:02:15.743Z,1028.77
2019-01-04T02:03:15.720Z,1028.72
2019-01-04T02:04:15.700Z,1028.71
2019-01-04T02:05:15.674Z,1028.73
2019-01-04T02:06:15.645Z,1028.70
2019-01-04T02:07:15.625Z,1028.71
2019-01-04T02:08:15.606Z,1028.72
2019-01-04T02:09:15.577Z,1028.74
2019-01-04T02:10:15.552Z,1028.70
2019-01-04T02:11:15.528Z,1028.66
2019-01-04T02:12:15.508Z,1028.65
2019-01-04T02:13:15.484Z,1028.68
2019-01-04T02:14:15.456Z,1028.65
2019-01-04T02:15:15.430Z,1028.61
2019-01-04T02:16:15.415Z,1028.57
2019-01-04T02:17:15.386Z,1028.52
2019-01-04T02:18:15.362Z,1028.53
2019-01-04T02:19:15.348Z,1028.50
2019-01-04T02:20:15.317Z,1028.49
2019-01-04T02:21:15.294Z,1028.46
2019-01-04T02:22:15.267Z,1028.45
2019-01-04T02:23:15.248Z,1028.48
2019-01-04T02:24:15.226Z,1028.42
2019-01-04T02:25:15.198Z,1028.39
2019-01-04T02:26:15.173Z,1028.44
2019-01-04T02:27:15.146Z,1028.46
2019-01-04T02:28:15.126Z,1028.45
2019-01-04T02:29:15.105Z,1028.43
2019-01-04T02:30:15.083Z,1028.41
2019-01-04T02:31:15.061Z,1028.40
2019-01-04T02:32:15.033Z,1028.44
2019-01-04T02:33:15.008Z,1028.44
2019-01-04T02:34:14.984Z,1028.45
2019-01-04T02:35:14.960Z,1028.42
2019-01-04T02:36:14.942Z,1028.36
2019-01-04T02:37:14.921Z,1028.35
2019-01-04T02:38:14.888Z,1028.36
2019-01-04T02:39:14.866Z,1028.38
2019-01-04T02:40:14.843Z,1028.32
2019-01-04T02:41:14.822Z,1028.35
2019-01-04T02:42:14.800Z,1028.29
2019-01-04T02:43:14.776Z,1028.27
2019-01-04T02:44:14.750Z,1028.24
2019-01-04T02:45:14.723Z,1028.23
2019-01-04T02:46:14.699Z,1028.20
2019-01-04T02:47:14.683Z,1028.21
2019-01-04T02:48:14.655Z,1028.14
2019-01-04T02:49:14.628Z,1028.13
2019-01-04T02:50:14.607Z,1028.15
2019-01-04T02:51:14.580Z,1028.14
2019-01-04T02:52:14.561Z,1028.07
2019-01-04T02:53:14.542Z,1028.08
2019-01-04T02:54:14.517Z,1028.09
2019-01-04T02:55:14.486Z,1028.07
2019-01-04T02:56:14.461Z,1028.07
2019-01-04T02:57:14.435Z,1028.08
2019-01-04T02:58:14.413Z,1028.13
2019-01-04T02:59:14.394Z,1028.09
2019-01-04T03:00:14.369Z,1028.12
2019-01-04T03:01:14.345Z,1028.09
2019-01-04T03:02:14.327Z,1028.08
2019-01-04T03:03:14.299Z,1028.08
2019-01-04T03:04:14.278Z,1028.06
2019-01-04T03:05:14.253Z,1028.07
2019-01-04T03:06:14.225Z,1028.07
2019-01-04T03:07:14.205Z,1028.05
2019-01-04T03:08:14.184Z,1028.04
2019-01-04T03:09:14.165Z,1028.03
2019-01-04T03:10:14.136Z,1028.05
2019-01-04T03:11:14.109Z,1028.02
2019-01-04T03:12:14.085Z,1027.98
2019-01-04T03:13:14.065Z,1027.92
2019-01-04T03:14:14.038Z,1027.91
2019-01-04T03:15:14.013Z,1027.88
2019-01-04T03:16:13.996Z,1027.85
2019-01-04T03:17:13.975Z,1027.89
2019-01-04T03:18:13.941Z,1027.82
2019-01-04T03:19:13.919Z,1027.85
2019-01-04T03:20:13.897Z,1027.79
2019-01-04T03:21:13.871Z,1027.81
2019-01-04T03:22:13.854Z,1027.74
2019-01-04T03:23:13.829Z,1027.72
2019-01-04T03:24:13.807Z,1027.71
2019-01-04T03:25:13.781Z,1027.69
2019-01-04T03:26:13.763Z,1027.69
2019-01-04T03:27:13.731Z,1027.72
2019-01-04T03:28:13.714Z,1027.69
2019-01-04T03:29:13.684Z,1027.67
2019-01-04T03:30:13.660Z,1027.67
2019-01-04T03:31:13.644Z,1027.67
2019-01-04T03:32:13.619Z,1027.62
2019-01-04T03:33:13.590Z,1027.61
2019-01-04T03:34:13.565Z,1027.64
2019-01-04T03:35:13.541Z,1027.57
2019-01-04T03:36:13.523Z,1027.54
2019-01-04T03:37:13.497Z,1027.55
2019-01-04T03:38:13.473Z,1027.55
2019-01-04T03:39:13.452Z,1027.55
2019-01-04T03:40:13.433Z,1027.53
2019-01-04T03:41:13.401Z,1027.51
2019-01-04T03:42:13.379Z,1027.51
2019-01-04T03:43:13.353Z,1027.49
2019-01-04T03:44:13.332Z,1027.47
2019-01-04T03:45:13.306Z,1027.43
2019-01-04T03:46:13.285Z,1027.41
2019-01-04T03:47:13.268Z,1027.45
2019-01-04T03:48:13.239Z,1027.48
2019-01-04T03:49:13.211Z,1027.43
2019-01-04T03:50:13.188Z,1027.44
2019-01-04T03:51:13.159Z,1027.41
2019-01-04T03:52:13.142Z,1027.42
2019-01-04T03:53:13.120Z,1027.41
2019-01-04T03:54:13.098Z,1027.36
2019-01-04T03:55:13.076Z,1027.34
2019-01-04T03:56:13.045Z,1027.29
2019-01-04T03:57:13.023Z,1027.27
2019-01-04T03:58:13.000Z,1027.25
2019-01-04T03:59:12.975Z,1027.25
2019-01-04T04:00:12.956Z,1027.25
2019-01-04T04:01:12.929Z,1027.19
2019-01-04T04:02:12.907Z,1027.20
2019-01-04T04:03:12.878Z,1027.14
2019-01-04T04:04:12.857Z,1027.09
2019-01-04T04:05:12.843Z,1027.08
2019-01-04T04:06:12.812Z,1027.08
2019-01-04T04:07:12.785Z,1027.03
2019-01-04T04:08:12.762Z,1027.01
2019-01-04T04:09:12.741Z,1027.01
2019-01-04T04:10:12.716Z,1027.02
2019-01-04T04:11:12.696Z,1027.01
2019-01-04T04:12:12.672Z,1027.02
2019-01-04T04:13:12.647Z,1027.05
2019-01-04T04:14:12.620Z,1026.98
2019-01-04T04:15:12.601Z,1026.98
2019-01-04T04:16:12.572Z,1026.98
2019-01-04T04:17:12.550Z,1027.01
2019-01-04T04:18:12.528Z,1027.01
2019-01-04T04:19:12.506Z,1026.93
2019-01-04T04:20:12.483Z,1026.98
2019-01-04T04:21:12.459Z,1026.96
2019-01-04T04:22:12.433Z,1026.93
2019-01-04T04:23:12.412Z,1026.91
2019-01-04T04:24:12.386Z,1026.87
2019-01-04T04:25:12.361Z,1026.80
2019-01-04T04:26:12.337Z,1026.82
2019-01-04T04:27:12.317Z,1026.79
2019-01-04T04:28:12.297Z,1026.78
2019-01-04T04:29:12.272Z,1026.77
2019-01-04T04:30:12.249Z,1026.76
2019-01-04T04:31:12.221Z,1026.78
2019-01-04T04:32:12.198Z,1026.77
2019-01-04T04:33:12.186Z,1026.76
2019-01-04T04:34:12.152Z,1026.74
2019-01-04T04:35:12.134Z,1026.74
2019-01-04T04:36:12.110Z,1026.75
2019-01-04T04:37:12.082Z,1026.68
2019-01-04T04:38:12.054Z,1026.75
2019-01-04T04:39:12.042Z,1026.73
2019-01-04T04:40:12.008Z,1026.67
2019-01-04T04:41:11.988Z,1026.68
2019-01-04T04:42:11.964Z,1026.70
2019-01-04T04:43:11.937Z,1026.70
2019-01-04T04:44:11.914Z,1026.65
2019-01-04T04:45:11.892Z,1026.63
2019-01-04T04:46:11.876Z,1026.64
2019-01-04T04:47:11.905Z,1026.64
2019-01-04T04:48:11.822Z,1026.67
2019-01-04T04:49:11.810Z,1026.64
2019-01-04T04:50:11.775Z,1026.58
2019-01-04T04:51:11.750Z,1026.59
2019-01-04T04:52:11.734Z,1026.57
2019-01-04T04:53:11.702Z,1026.54
2019-01-04T04:54:11.680Z,1026.57
2019-01-04T04:55:11.658Z,1026.57
2019-01-04T04:56:11.638Z,1026.57
2019-01-04T04:57:11.609Z,1026.57
2019-01-04T04:58:11.582Z,1026.54
2019-01-04T04:59:11.564Z,1026.56
2019-01-04T05:00:11.539Z,1026.52
2019-01-04T05:01:11.517Z,1026.50
2019-01-04T05:02:11.493Z,1026.50
2019-01-04T05:03:11.472Z,1026.46
2019-01-04T05:04:11.438Z,1026.52
2019-01-04T05:05:11.419Z,1026.48
2019-01-04T05:06:11.398Z,1026.43
2019-01-04T05:07:11.374Z,1026.49
2019-01-04T05:08:11.353Z,1026.45
2019-01-04T05:09:11.327Z,1026.43
2019-01-04T05:10:11.305Z,1026.45
2019-01-04T05:11:11.282Z,1026.43
2019-01-04T05:12:11.260Z,1026.50
2019-01-04T05:13:11.229Z,1026.43
2019-01-04T05:14:11.206Z,1026.42
2019-01-04T05:15:11.183Z,1026.44
2019-01-04T05:16:11.163Z,1026.43
2019-01-04T05:17:11.139Z,1026.46
2019-01-04T05:18:11.113Z,1026.51
2019-01-04T05:19:11.098Z,1026.47
2019-01-04T05:20:11.066Z,1026.46
2019-01-04T05:21:11.043Z,1026.46
2019-01-04T05:22:11.022Z,1026.44
2019-01-04T05:23:11.004Z,1026.47
2019-01-04T05:24:10.974Z,1026.46
2019-01-04T05:25:10.964Z,1026.47
2019-01-04T05:26:10.923Z,1026.46
2019-01-04T05:27:10.905Z,1026.47
2019-01-04T05:28:10.886Z,1026.50
2019-01-04T05:29:10.851Z,1026.45
2019-01-04T05:30:10.836Z,1026.45
2019-01-04T05:31:10.807Z,1026.51
2019-01-04T05:32:10.779Z,1026.51
2019-01-04T05:33:10.764Z,1026.56
2019-01-04T05:34:10.734Z,1026.53
2019-01-04T05:35:10.712Z,1026.50
2019-01-04T05:36:10.690Z,1026.49
2019-01-04T05:37:10.665Z,1026.48
2019-01-04T05:38:10.643Z,1026.49
2019-01-04T05:39:10.621Z,1026.46
2019-01-04T05:40:10.608Z,1026.40
2019-01-04T05:41:10.571Z,1026.39
2019-01-04T05:42:10.556Z,1026.35
2019-01-04T05:43:10.527Z,1026.33
2019-01-04T05:44:10.501Z,1026.26
2019-01-04T05:45:10.477Z,1026.24
2019-01-04T05:46:10.453Z,1026.22
2019-01-04T05:47:10.429Z,1026.16
2019-01-04T05:48:10.404Z,1026.14
2019-01-04T05:49:10.383Z,1026.09
2019-01-04T05:50:10.362Z,1026.10
2019-01-04T05:51:10.334Z,1026.03
2019-01-04T05:52:10.315Z,1026.01
2019-01-04T05:53:10.284Z,1026.00
2019-01-04T05:54:10.263Z,1026.02
2019-01-04T05:55:10.261Z,1025.95
2019-01-04T05:56:10.213Z,1025.95
2019-01-04T05:57:10.190Z,1025.96
2019-01-04T05:58:10.169Z,1025.92
2019-01-04T05:59:10.144Z,1025.92
2019-01-04T06:00:10.121Z,1025.92
2019-01-04T06:01:10.100Z,1025.92
2019-01-04T06:02:10.083Z,1025.96
2019-01-04T06:03:10.049Z,1025.89
2019-01-04T06:04:10.033Z,1025.91
2019-01-04T06:05:10.005Z,1025.90
2019-01-04T06:06:09.983Z,1025.88
2019-01-04T06:07:09.961Z,1025.94
2019-01-04T06:08:09.937Z,1025.88
2019-01-04T06:09:09.913Z,1025.96
2019-01-04T06:10:09.882Z,1025.93
2019-01-04T06:11:09.867Z,1025.95
2019-01-04T06:12:09.842Z,1025.93
2019-01-04T06:13:09.820Z,1025.94
2019-01-04T06:14:09.787Z,1025.92
2019-01-04T06:15:09.769Z,1025.92
2019-01-04T06:16:09.742Z,1025.89
2019-01-04T06:17:09.719Z,1025.81
2019-01-04T06:18:09.697Z,1025.86
2019-01-04T06:19:09.674Z,1025.76
2019-01-04T06:20:09.656Z,1025.75
2019-01-04T06:21:09.632Z,1025.79
2019-01-04T06:22:09.602Z,1025.74
2019-01-04T06:23:09.576Z,1025.79
2019-01-04T06:24:09.560Z,1025.79
2019-01-04T06:25:09.537Z,1025.75
2019-01-04T06:26:09.511Z,1025.78
2019-01-04T06:27:09.487Z,1025.75
2019-01-04T06:28:09.463Z,1025.84
2019-01-04T06:29:09.432Z,1025.82
2019-01-04T06:30:09.412Z,1025.77
2019-01-04T06:31:09.388Z,1025.82
2019-01-04T06:32:09.370Z,1025.82
2019-01-04T06:33:09.343Z,1025.85
2019-01-04T06:34:09.323Z,1025.81
2019-01-04T06:35:09.301Z,1025.85
2019-01-04T06:36:09.272Z,1025.84
2019-01-04T06:37:09.245Z,1025.87
2019-01-04T06:38:09.220Z,1025.79
2019-01-04T06:39:09.202Z,1025.80
2019-01-04T06:40:09.178Z,1025.73
2019-01-04T06:41:09.150Z,1025.67
2019-01-04T06:42:09.128Z,1025.64
2019-01-04T06:43:09.104Z,1025.61
2019-01-04T06:44:09.086Z,1025.60
2019-01-04T06:45:09.063Z,1025.62
2019-01-04T06:46:09.037Z,1025.56
2019-01-04T06:47:09.012Z,1025.61
2019-01-04T06:48:08.991Z,1025.60
2019-01-04T06:49:08.968Z,1025.60
2019-01-04T06:50:08.940Z,1025.55
2019-01-04T06:51:08.922Z,1025.52
2019-01-04T06:52:08.896Z,1025.50
2019-01-04T06:53:08.872Z,1025.55
2019-01-04T06:54:08.848Z,1025.54
2019-01-04T06:55:08.826Z,1025.53
2019-01-04T06:56:08.804Z,1025.55
2019-01-04T06:57:08.774Z,1025.55
2019-01-04T06:58:08.756Z,1025.55
2019-01-04T06:59:08.731Z,1025.58
2019-01-04T07:00:08.707Z,1025.53
2019-01-04T07:01:08.681Z,1025.51
2019-01-04T07:02:08.660Z,1025.47
2019-01-04T07:03:08.634Z,1025.41
2019-01-04T07:04:08.613Z,1025.40
2019-01-04T07:05:08.589Z,1025.40
2019-01-04T07:06:08.568Z,1025.38
2019-01-04T07:07:08.540Z,1025.39
2019-01-04T07:08:08.518Z,1025.42
2019-01-04T07:09:08.492Z,1025.42
2019-01-04T07:10:08.474Z,1025.43
2019-01-04T07:11:08.446Z,1025.45
2019-01-04T07:12:08.430Z,1025.53
2019-01-04T07:13:08.404Z,1025.45
2019-01-04T07:14:08.377Z,1025.42
2019-01-04T07:15:08.354Z,1025.46
2019-01-04T07:16:08.329Z,1025.42
2019-01-04T07:17:08.302Z,1025.39
2019-01-04T07:18:08.276Z,1025.35
2019-01-04T07:19:08.256Z,1025.33
2019-01-04T07:20:08.236Z,1025.31
2019-01-04T07:21:08.208Z,1025.30
2019-01-04T07:22:08.188Z,1025.26
2019-01-04T07:23:08.162Z,1025.24
2019-01-04T07:24:08.146Z,1025.24
2019-01-04T07:25:08.118Z,1025.21
2019-01-04T07:26:08.095Z,1025.20
2019-01-04T07:27:08.068Z,1025.22
2019-01-04T07:28:08.044Z,1025.13
2019-01-04T07:29:08.022Z,1025.16
2019-01-04T07:30:08.003Z,1025.15
2019-01-04T07:31:07.976Z,1025.11
2019-01-04T07:32:07.952Z,1025.16
2019-01-04T07:33:07.928Z,1025.16
2019-01-04T07:34:07.916Z,1025.20
2019-01-04T07:35:07.882Z,1025.17
2019-01-04T07:36:07.857Z,1025.20
2019-01-04T07:37:07.836Z,1025.25
2019-01-04T07:38:07.810Z,1025.28
2019-01-04T07:39:07.796Z,1025.21
2019-01-04T07:40:07.764Z,1025.17
2019-01-04T07:41:07.744Z,1025.13
2019-01-04T07:42:07.722Z,1025.15
2019-01-04T07:43:07.694Z,1025.17
2019-01-04T07:44:07.671Z,1025.16
2019-01-04T07:45:07.646Z,1025.19
2019-01-04T07:46:07.623Z,1025.21
2019-01-04T07:47:07.604Z,1025.16
2019-01-04T07:48:07.574Z,1025.17
2019-01-04T07:49:07.552Z,1025.14
2019-01-04T07:50:07.528Z,1025.14
2019-01-04T07:51:07.505Z,1025.12
2019-01-04T07:52:07.482Z,1025.06
2019-01-04T07:53:07.458Z,1025.08
2019-01-04T07:54:07.431Z,1025.07
2019-01-04T07:55:07.418Z,1025.05
2019-01-04T07:56:07.384Z,1025.05
2019-01-04T07:57:07.362Z,1025.05
2019-01-04T07:58:07.340Z,1025.07
2019-01-04T07:59:07.315Z,1025.06
2019-01-04T08:00:07.295Z,1025.06
2019-01-04T08:01:07.271Z,1024.99
2019-01-04T08:02:07.251Z,1024.98
2019-01-04T08:03:07.225Z,1024.96
2019-01-04T08:04:07.203Z,1024.99
2019-01-04T08:05:07.172Z,1024.90
2019-01-04T08:06:07.151Z,1024.96
2019-01-04T08:07:07.124Z,1024.97
2019-01-04T08:08:07.102Z,1024.96
2019-01-04T08:09:07.077Z,1024.97
2019-01-04T08:10:07.065Z,1024.89
2019-01-04T08:11:07.037Z,1024.88
2019-01-04T08:12:07.011Z,1024.84
2019-01-04T08:13:06.982Z,1024.80
2019-01-04T08:14:06.963Z,1024.68
2019-01-04T08:15:06.938Z,1024.72
2019-01-04T08:16:06.915Z,1024.65
2019-01-04T08:17:06.891Z,1024.61
2019-01-04T08:18:06.867Z,1024.64
2019-01-04T08:19:06.851Z,1024.63
2019-01-04T08:20:06.822Z,1024.65
2019-01-04T08:21:06.798Z,1024.67
2019-01-04T08:22:06.779Z,1024.67
2019-01-04T08:23:06.748Z,1024.68
2019-01-04T08:24:06.730Z,1024.69
2019-01-04T08:25:06.707Z,1024.67
2019-01-04T08:26:06.681Z,1024.68
2019-01-04T08:27:06.655Z,1024.65
2019-01-04T08:28:06.638Z,1024.63
2019-01-04T08:29:06.607Z,1024.65
2019-01-04T08:30:06.585Z,1024.71
2019-01-04T08:31:06.560Z,1024.70
2019-01-04T08:32:06.541Z,1024.62
2019-01-04T08:33:06.513Z,1024.62
2019-01-04T08:34:06.491Z,1024.61
2019-01-04T08:35:06.469Z,1024.60
2019-01-04T08:36:06.443Z,1024.53
2019-01-04T08:37:06.423Z,1024.56
2019-01-04T08:38:06.393Z,1024.49
2019-01-04T08:39:06.376Z,1024.49
2019-01-04T08:40:06.350Z,1024.49
2019-01-04T08:41:06.322Z,1024.44
2019-01-04T08:42:06.299Z,1024.49
2019-01-04T08:43:06.279Z,1024.45
2019-01-04T08:44:06.257Z,1024.38
2019-01-04T08:45:06.232Z,1024.44
2019-01-04T08:46:06.207Z,1024.44
2019-01-04T08:47:06.182Z,1024.44
2019-01-04T08:48:06.169Z,1024.44
2019-01-04T08:49:06.137Z,1024.43
2019-01-04T08:50:06.115Z,1024.41
2019-01-04T08:51:06.088Z,1024.43
2019-01-04T08:52:06.067Z,1024.42
2019-01-04T08:53:06.043Z,1024.39
2019-01-04T08:54:06.019Z,1024.36
2019-01-04T08:55:05.997Z,1024.40
2019-01-04T08:56:05.971Z,1024.43
2019-01-04T08:57:05.948Z,1024.44
2019-01-04T08:58:05.925Z,1024.37
2019-01-04T08:59:05.901Z,1024.39
2019-01-04T09:00:05.877Z,1024.38
2019-01-04T09:01:05.860Z,1024.35
2019-01-04T09:02:05.839Z,1024.38
2019-01-04T09:03:05.816Z,1024.37
2019-01-04T09:04:05.786Z,1024.29
2019-01-04T09:05:05.759Z,1024.29
2019-01-04T09:06:05.739Z,1024.26
2019-01-04T09:07:05.715Z,1024.24
2019-01-04T09:08:05.694Z,1024.21
2019-01-04T09:09:05.678Z,1024.22
2019-01-04T09:10:05.647Z,1024.18
2019-01-04T09:11:05.628Z,1024.10
2019-01-04T09:12:05.596Z,1024.07
2019-01-04T09:13:05.575Z,1024.07
2019-01-04T09:14:05.546Z,1024.01
2019-01-04T09:15:05.527Z,1024.02
2019-01-04T09:16:05.509Z,1023.96
2019-01-04T09:17:05.488Z,1023.88
2019-01-04T09:18:05.458Z,1023.91
2019-01-04T09:19:05.436Z,1023.94
2019-01-04T09:20:05.416Z,1023.88
2019-01-04T09:21:05.392Z,1023.93
2019-01-04T09:22:05.361Z,1023.85
2019-01-04T09:23:05.342Z,1023.87
2019-01-04T09:24:05.323Z,1023.89
2019-01-04T09:25:05.291Z,1023.87
2019-01-04T09:26:05.265Z,1023.81
2019-01-04T09:27:05.246Z,1023.73
2019-01-04T09:28:05.220Z,1023.84
2019-01-04T09:29:05.201Z,1023.92
2019-01-04T09:30:05.183Z,1023.93
2019-01-04T09:31:05.149Z,1023.86
2019-01-04T09:32:05.136Z,1023.79
2019-01-04T09:33:05.103Z,1023.84
2019-01-04T09:34:05.082Z,1023.91
2019-01-04T09:35:05.058Z,1023.86
2019-01-04T09:36:05.032Z,1023.79
2019-01-04T09:37:05.016Z,1023.81
2019-01-04T09:38:04.987Z,1023.77
2019-01-04T09:39:05.014Z,1023.77
2019-01-04T09:40:04.938Z,1023.71
2019-01-04T09:41:04.920Z,1023.68
2019-01-04T09:42:04.893Z,1023.63
2019-01-04T09:43:04.870Z,1023.70
2019-01-04T09:44:04.846Z,1023.60
2019-01-04T09:45:04.820Z,1023.58
2019-01-04T09:46:04.805Z,1023.57
2019-01-04T09:47:04.780Z,1023.61
2019-01-04T09:48:04.755Z,1023.52
2019-01-04T09:49:04.730Z,1023.51
2019-01-04T09:50:04.702Z,1023.50
2019-01-04T09:51:04.684Z,1023.40
2019-01-04T09:52:04.656Z,1023.29
2019-01-04T09:53:04.642Z,1023.31
2019-01-04T09:54:04.614Z,1023.25
2019-01-04T09:55:04.590Z,1023.21
2019-01-04T09:56:04.574Z,1023.15
2019-01-04T09:57:04.543Z,1023.18
2019-01-04T09:58:04.517Z,1023.15
2019-01-04T09:59:04.498Z,1023.16
2019-01-04T10:00:04.477Z,1023.12
2019-01-04T10:01:04.452Z,1023.09
2019-01-04T10:02:04.425Z,1023.02
2019-01-04T10:03:04.400Z,1023.10
2019-01-04T10:04:04.381Z,1023.10
2019-01-04T10:05:04.360Z,1023.03
2019-01-04T10:06:04.333Z,1023.04
2019-01-04T10:07:04.312Z,1023.00
2019-01-04T10:08:04.286Z,1023.11
2019-01-04T10:09:04.263Z,1023.05
2019-01-04T10:10:04.248Z,1023.03
2019-01-04T10:11:04.263Z,1022.97
2019-01-04T10:12:04.192Z,1022.95
2019-01-04T10:13:04.164Z,1023.00
2019-01-04T10:14:04.144Z,1022.98
2019-01-04T10:15:04.122Z,1022.97
2019-01-04T10:16:04.103Z,1023.00
2019-01-04T10:17:04.076Z,1022.92
2019-01-04T10:18:04.048Z,1022.87
2019-01-04T10:19:04.028Z,1022.90
2019-01-04T10:20:04.005Z,1022.83
2019-01-04T10:21:03.981Z,1022.83
2019-01-04T10:22:04.019Z,1022.79
2019-01-04T10:23:03.937Z,1022.69
2019-01-04T10:24:03.914Z,1022.72
2019-01-04T10:25:03.891Z,1022.67
2019-01-04T10:26:03.867Z,1022.73
2019-01-04T10:27:03.844Z,1022.68
2019-01-04T10:28:03.822Z,1022.68
2019-01-04T10:29:03.799Z,1022.58
2019-01-04T10:30:03.770Z,1022.56
2019-01-04T10:31:03.749Z,1022.58
2019-01-04T10:32:03.726Z,1022.54
2019-01-04T10:33:03.705Z,1022.47
2019-01-04T10:34:03.684Z,1022.46
2019-01-04T10:35:03.661Z,1022.40
2019-01-04T10:36:03.630Z,1022.32
2019-01-04T10:37:03.607Z,1022.29
2019-01-04T10:38:03.583Z,1022.23
2019-01-04T10:39:03.563Z,1022.27
2019-01-04T10:40:03.542Z,1022.19
2019-01-04T10:41:03.517Z,1022.16
2019-01-04T10:42:03.493Z,1022.12
2019-01-04T10:43:03.471Z,1022.15
2019-01-04T10:44:03.443Z,1022.10
2019-01-04T10:45:03.426Z,1022.12
2019-01-04T10:46:03.401Z,1022.07
2019-01-04T10:47:03.378Z,1022.03
2019-01-04T10:48:03.353Z,1022.07
2019-01-04T10:49:03.339Z,1022.02
2019-01-04T10:50:03.305Z,1021.97
2019-01-04T10:51:03.285Z,1021.91
2019-01-04T10:52:03.259Z,1021.86
2019-01-04T10:53:03.245Z,1021.79
2019-01-04T10:54:03.217Z,1021.79
2019-01-04T10:55:03.188Z,1021.82
2019-01-04T10:56:03.168Z,1021.73
2019-01-04T10:57:03.145Z,1021.73
2019-01-04T10:58:03.120Z,1021.69
2019-01-04T10:59:03.105Z,1021.66
2019-01-04T11:00:03.077Z,1021.66
2019-01-04T11:01:03.051Z,1021.67
2019-01-04T11:02:03.027Z,1021.66
2019-01-04T11:03:03.011Z,1021.63
2019-01-04T11:04:02.981Z,1021.62
2019-01-04T11:05:02.960Z,1021.61
2019-01-04T11:06:02.936Z,1021.53
2019-01-04T11:07:02.913Z,1021.59
2019-01-04T11:08:02.887Z,1021.54
2019-01-04T11:09:02.867Z,1021.57
2019-01-04T11:10:02.849Z,1021.54
2019-01-04T11:11:02.828Z,1021.50
2019-01-04T11:12:02.793Z,1021.44
2019-01-04T11:13:02.772Z,1021.38
2019-01-04T11:14:02.749Z,1021.40
2019-01-04T11:15:02.725Z,1021.35
2019-01-04T11:16:02.700Z,1021.36
2019-01-04T11:17:02.679Z,1021.25
2019-01-04T11:18:03.378Z,1021.24
2019-01-04T11:19:02.632Z,1021.11
2019-01-04T11:20:02.612Z,1021.19
2019-01-04T11:21:02.588Z,1021.18
2019-01-04T11:22:02.566Z,1021.16
2019-01-04T11:23:02.545Z,1021.17
2019-01-04T11:24:02.519Z,1021.11
2019-01-04T11:25:02.663Z,1021.11
2019-01-04T11:26:02.466Z,1021.08
2019-01-04T11:27:02.447Z,1021.08
2019-01-04T11:28:02.421Z,1021.03
2019-01-04T11:29:02.398Z,1021.03
2019-01-04T11:30:02.374Z,1021.01
2019-01-04T11:31:02.359Z,1020.95
2019-01-04T11:32:02.333Z,1020.96
2019-01-04T11:33:02.313Z,1020.96
2019-01-04T11:34:02.283Z,1020.96
2019-01-04T11:35:02.264Z,1020.89
2019-01-04T11:36:02.242Z,1020.88
2019-01-04T11:37:02.242Z,1020.81
2019-01-04T11:38:02.188Z,1020.80
2019-01-04T11:39:02.172Z,1020.80
2019-01-04T11:40:02.152Z,1020.69
2019-01-04T11:41:02.118Z,1020.59
2019-01-04T11:42:02.098Z,1020.57
2019-01-04T11:43:02.081Z,1020.62
2019-01-04T11:44:02.052Z,1020.61
2019-01-04T11:45:02.033Z,1020.56
2019-01-04T11:46:02.011Z,1020.51
2019-01-04T11:47:01.986Z,1020.42
2019-01-04T11:48:01.962Z,1020.40
2019-01-04T11:49:01.938Z,1020.36
2019-01-04T11:50:01.914Z,1020.31
2019-01-04T11:51:01.892Z,1020.23
2019-01-04T11:52:01.881Z,1020.27
2019-01-04T11:53:01.853Z,1020.27
2019-01-04T11:54:01.823Z,1020.29
2019-01-04T11:55:01.798Z,1020.31
2019-01-04T11:56:01.774Z,1020.23
2019-01-04T11:57:01.750Z,1020.18
2019-01-04T11:58:01.732Z,1020.16
2019-01-04T11:59:01.716Z,1020.14
2019-01-04T12:00:01.688Z,1020.15
2019-01-04T12:01:01.662Z,1020.12
2019-01-04T12:02:01.642Z,1020.07
2019-01-04T12:03:01.626Z,1019.98
2019-01-04T12:04:02.219Z,1019.96
2019-01-04T12:05:01.572Z,1019.96